Time;durP1;ratioP1;P1;durP2;ratioP2;P2;SDS_P1;SDS_P2;PMS_P1;PMS_P2;Temp;Humidity;BMP_temperature;BMP_pressure;BME280_temperature;BME280_humidity;BME280_pressure;Samples;Min_cycle;Max_cycle;Signal;HPM_P1;HPM_P2
2023/05/02 00:03:12;;;;;;;2.72;1.73;;;;;;;19.57;37.40;101962.47;16111789;19;130463;-39
2023/05/02 00:08:34;;;;;;;4.50;2.58;;;;;;;19.55;37.39;101967.41;16108818;19;133394;-39
2023/05/02 00:13:56;;;;;;;5.45;2.63;;;;;;;19.53;37.14;101967.63;16108565;19;130383;-39
2023/05/02 00:19:19;;;;;;;4.45;2.33;;;;;;;19.52;37.40;101971.47;16105220;19;130587;-39
2023/05/02 00:24:40;;;;;;;5.30;4.15;;;;;;;19.50;37.18;101981.09;16101025;19;129577;-39
2023/05/02 00:30:03;;;;;;;5.22;3.75;;;;;;;19.49;37.17;101982.19;16106621;19;130731;-40
2023/05/02 00:35:25;;;;;;;4.65;3.30;;;;;;;19.47;37.40;101984.31;16110587;19;131085;-39
2023/05/02 00:40:50;;;;;;;4.43;2.75;;;;;;;19.47;37.28;101989.88;16108671;19;129847;-39
2023/05/02 00:46:12;;;;;;;6.27;3.60;;;;;;;19.45;37.18;101992.03;16108552;19;131554;-39
2023/05/02 00:51:34;;;;;;;7.65;3.97;;;;;;;19.43;37.63;101991.44;16111619;19;134644;-39
2023/05/02 00:56:56;;;;;;;5.28;3.30;;;;;;;19.43;37.17;101999.75;16104852;19;130758;-39
2023/05/02 01:02:50;;;;;;;3.25;2.72;;;;;;;19.42;37.44;101998.88;16111951;19;130645;-39
2023/05/02 01:08:33;;;;;;;8.13;4.13;;;;;;;19.42;37.56;102001.66;16109070;19;130238;-39
2023/05/02 01:13:58;;;;;;;3.78;2.63;;;;;;;19.41;37.27;102004.66;16122989;19;130556;-39
2023/05/02 01:19:34;;;;;;;4.30;2.77;;;;;;;19.40;37.18;102006.56;16118028;19;130579;-39
2023/05/02 01:25:10;;;;;;;4.05;2.92;;;;;;;19.38;37.31;102003.22;16124196;19;132094;-39
2023/05/02 01:30:32;;;;;;;;;;;;;;;19.33;37.43;102012.19;16124655;19;129632;-39
2023/05/02 01:35:56;;;;;;;5.30;3.58;;;;;;;19.34;37.41;102013.03;16120103;19;130581;-39
2023/05/02 01:41:19;;;;;;;5.00;3.60;;;;;;;19.34;37.47;102015.81;16117611;19;130315;-40
2023/05/02 01:46:43;;;;;;;4.88;4.13;;;;;;;19.31;37.42;102014.34;16125803;19;129349;-39
2023/05/02 01:52:10;;;;;;;5.90;3.55;;;;;;;19.31;37.67;102008.81;16119792;19;130642;-38
2023/05/02 01:57:32;;;;;;;5.18;3.25;;;;;;;19.30;37.21;101997.91;16122817;19;129029;-40
2023/05/02 02:02:56;;;;;;;4.07;2.90;;;;;;;19.29;37.50;101997.06;16115988;19;134894;-39
2023/05/02 02:08:18;;;;;;;3.60;2.55;;;;;;;19.29;37.56;102001.75;16118712;19;130422;-39
2023/05/02 02:13:46;;;;;;;4.68;3.22;;;;;;;19.30;37.70;102020.09;16120762;19;131413;-39
2023/05/02 02:19:12;;;;;;;4.75;2.83;;;;;;;19.28;37.52;102042.53;16119544;19;129486;-48
2023/05/02 02:24:38;;;;;;;3.30;2.60;;;;;;;19.28;37.37;102037.00;16122601;19;133643;-48
2023/05/02 02:30:00;;;;;;;3.72;3.00;;;;;;;19.28;37.17;102050.00;16120455;19;130486;-39
2023/05/02 02:35:30;;;;;;;4.05;2.80;;;;;;;19.28;37.63;102056.41;16117078;19;129415;-39
2023/05/02 02:40:56;;;;;;;4.13;2.72;;;;;;;19.27;37.65;102064.94;16120610;19;129283;-39
2023/05/02 02:47:11;;;;;;;2.85;2.30;;;;;;;19.24;37.19;102074.56;16117108;19;130069;-40
2023/05/02 02:52:44;;;;;;;3.40;2.80;;;;;;;19.23;37.45;102081.19;16109109;19;130041;-39
2023/05/02 02:58:19;;;;;;;3.67;2.47;;;;;;;19.22;37.25;102076.72;16107720;19;130403;-39
2023/05/02 03:03:43;;;;;;;4.22;2.83;;;;;;;19.21;37.38;102086.09;16105237;19;130020;-40
2023/05/02 03:09:05;;;;;;;4.93;2.78;;;;;;;19.20;37.55;102088.00;16101412;19;131802;-39
2023/05/02 03:14:27;;;;;;;4.13;3.17;;;;;;;19.19;37.64;102088.25;16105794;19;130551;-39
2023/05/02 03:19:49;;;;;;;4.18;3.13;;;;;;;19.17;37.67;102095.94;16104666;19;134810;-39
2023/05/02 03:25:11;;;;;;;3.88;2.78;;;;;;;19.18;37.22;102092.09;16106399;19;129990;-40
2023/05/02 03:30:34;;;;;;;4.15;3.03;;;;;;;19.15;37.36;102090.59;16113230;19;131182;-40
2023/05/02 03:35:55;;;;;;;3.58;3.10;;;;;;;19.15;37.65;102098.06;16117710;19;131045;-39
2023/05/02 03:41:19;;;;;;;3.88;2.90;;;;;;;19.14;37.66;102097.19;16112047;19;130669;-40
2023/05/02 03:46:42;;;;;;;5.10;2.95;;;;;;;19.14;37.48;102107.47;16107542;19;130078;-39
2023/05/02 03:52:03;;;;;;;5.05;3.00;;;;;;;19.13;37.35;102095.53;16113153;19;131520;-39
2023/05/02 03:57:29;;;;;;;3.03;2.63;;;;;;;19.13;37.64;102106.63;16108046;19;130402;-39
2023/05/02 04:02:51;;;;;;;3.60;2.92;;;;;;;19.11;37.66;102110.66;16111472;19;130741;-39
2023/05/02 04:08:13;;;;;;;3.33;2.60;;;;;;;19.11;37.58;102118.97;16108732;19;132107;-39
2023/05/02 04:13:35;;;;;;;3.22;2.50;;;;;;;19.08;37.32;102121.13;16109935;19;130177;-48
2023/05/02 04:18:57;;;;;;;3.60;2.35;;;;;;;19.10;37.30;102123.69;16109085;19;129704;-49
2023/05/02 04:24:19;;;;;;;3.78;2.65;;;;;;;19.10;37.38;102122.81;16107952;19;132101;-40
2023/05/02 04:29:41;;;;;;;2.83;2.45;;;;;;;19.08;37.66;102132.22;16107311;19;132490;-39
2023/05/02 04:35:04;;;;;;;3.08;2.70;;;;;;;19.08;37.19;102156.34;16108384;19;130553;-39
2023/05/02 04:40:26;;;;;;;2.45;2.17;;;;;;;19.07;37.68;102166.59;16106839;19;130552;-40
2023/05/02 04:45:48;;;;;;;3.55;2.70;;;;;;;19.07;37.44;102177.69;16107385;19;130887;-40
2023/05/02 04:51:10;;;;;;;3.13;2.60;;;;;;;19.06;37.28;102183.44;16106169;19;130393;-41
2023/05/02 04:56:31;;;;;;;4.95;2.92;;;;;;;19.04;37.43;102200.31;16111439;19;130385;-40
2023/05/02 05:01:53;;;;;;;4.07;3.50;;;;;;;19.03;37.50;102195.84;16110448;19;130937;-39
2023/05/02 05:07:15;;;;;;;2.67;2.10;;;;;;;19.01;37.78;102202.69;16107715;19;129281;-39
2023/05/02 05:12:37;;;;;;;5.68;1.90;;;;;;;19.05;37.29;102209.47;16109158;19;129388;-39
2023/05/02 05:17:59;;;;;;;2.92;1.95;;;;;;;19.15;37.30;102206.25;16109045;19;130118;-39
2023/05/02 05:23:20;;;;;;;1.98;1.70;;;;;;;19.27;37.16;102212.84;16105801;19;130997;-49
2023/05/02 05:28:43;;;;;;;1.85;1.63;;;;;;;19.38;37.39;102219.66;16106293;19;130093;-39
2023/05/02 05:34:05;;;;;;;5.28;2.08;;;;;;;19.41;37.03;102233.06;16103654;19;131643;-39
2023/05/02 05:39:27;;;;;;;2.90;1.70;;;;;;;19.41;36.95;102246.09;16101997;19;131473;-39
2023/05/02 05:44:50;;;;;;;3.83;1.70;;;;;;;19.38;36.87;102259.34;16107113;19;136643;-39
2023/05/02 05:50:12;;;;;;;4.63;1.85;;;;;;;19.37;36.72;102263.19;16105371;19;129726;-39
2023/05/02 05:55:34;;;;;;;5.75;1.50;;;;;;;19.34;36.89;102280.25;16106457;19;129938;-39
2023/05/02 06:00:57;;;;;;;4.50;1.50;;;;;;;19.34;37.02;102288.59;16123617;19;130048;-39
2023/05/02 06:06:19;;;;;;;3.50;1.48;;;;;;;19.32;36.97;102307.38;16124746;19;129421;-39
2023/05/02 06:11:41;;;;;;;4.13;1.40;;;;;;;19.37;36.94;102310.34;16125813;19;130556;-38
2023/05/02 06:17:04;;;;;;;2.03;1.00;;;;;;;19.38;36.66;102319.56;16124305;19;130003;-39
2023/05/02 06:22:26;;;;;;;5.22;1.30;;;;;;;19.44;36.48;102326.16;16126589;19;130545;-38
2023/05/02 06:27:48;;;;;;;3.85;1.10;;;;;;;19.48;36.14;102330.19;16124847;19;130177;-38
2023/05/02 06:33:11;;;;;;;5.55;1.17;;;;;;;19.49;36.17;102331.88;16121212;19;131106;-39
2023/05/02 06:38:33;;;;;;;1.52;0.90;;;;;;;19.47;36.48;102339.56;16123387;19;129381;-39
2023/05/02 06:43:54;;;;;;;2.75;0.93;;;;;;;19.47;36.29;102347.91;16121767;19;130070;-38
2023/05/02 06:49:16;;;;;;;4.95;1.15;;;;;;;19.49;36.36;102354.09;16119821;19;129614;-39
2023/05/02 06:54:38;;;;;;;6.25;1.05;;;;;;;19.50;36.11;102350.25;16119828;19;129181;-38
2023/05/02 07:00:00;;;;;;;5.05;1.00;;;;;;;19.51;36.12;102365.84;16116489;19;129743;-39
2023/05/02 07:05:23;;;;;;;1.58;0.80;;;;;;;19.57;35.44;102373.28;16119340;19;130124;-38
2023/05/02 07:10:44;;;;;;;4.18;1.00;;;;;;;19.69;35.80;102381.81;16123109;19;129909;-39
2023/05/02 07:16:06;;;;;;;4.70;1.00;;;;;;;19.86;35.23;102384.94;16118000;19;131235;-39
2023/05/02 07:21:29;;;;;;;4.28;0.73;;;;;;;20.01;35.28;102378.31;16116266;19;130038;-39
2023/05/02 07:26:51;;;;;;;4.90;1.02;;;;;;;20.10;35.03;102391.72;16120692;19;131446;-39
2023/05/02 07:32:12;;;;;;;6.70;1.00;;;;;;;20.20;34.96;102385.69;16119135;19;130743;-41
2023/05/02 07:37:35;;;;;;;5.28;1.00;;;;;;;20.32;34.95;102396.09;16116486;19;129938;-39
2023/05/02 07:42:57;;;;;;;2.80;0.60;;;;;;;20.44;34.60;102394.31;16119606;19;131164;-40
2023/05/02 07:48:19;;;;;;;2.10;0.70;;;;;;;20.54;34.76;102382.72;16118964;19;129671;-39
2023/05/02 07:53:41;;;;;;;1.70;0.70;;;;;;;20.61;34.58;102383.53;16115364;19;130195;-41
2023/05/02 07:59:03;;;;;;;5.78;0.90;;;;;;;20.62;34.60;102392.72;16114613;19;129235;-40
2023/05/02 08:04:26;;;;;;;2.33;0.75;;;;;;;20.60;34.43;102399.34;16115703;19;129579;-40
2023/05/02 08:09:48;;;;;;;3.47;0.65;;;;;;;20.55;34.10;102412.22;16118349;19;130590;-39
2023/05/02 08:15:14;;;;;;;3.15;0.77;;;;;;;20.56;34.37;102420.31;16117667;19;130016;-39
2023/05/02 08:20:36;;;;;;;4.63;0.90;;;;;;;20.61;33.95;102441.94;16114819;19;129900;-41
2023/05/02 08:25:58;;;;;;;6.32;0.85;;;;;;;20.64;34.10;102438.69;16116889;19;129521;-39
2023/05/02 08:31:20;;;;;;;3.90;1.00;;;;;;;20.63;33.78;102434.19;16109968;19;130340;-41
2023/05/02 08:36:42;;;;;;;3.05;0.60;;;;;;;20.62;34.09;102442.75;16112728;19;129950;-45
2023/05/02 08:42:07;;;;;;;6.22;0.70;;;;;;;20.61;33.85;102444.72;16112604;19;129705;-40
2023/05/02 08:47:30;;;;;;;4.95;0.90;;;;;;;20.60;33.88;102448.56;16119724;19;133157;-39
2023/05/02 08:52:52;;;;;;;2.88;0.80;;;;;;;20.63;33.95;102452.81;16113486;19;130400;-40
2023/05/02 08:58:14;;;;;;;2.75;0.75;;;;;;;20.65;33.61;102461.78;16113171;19;131243;-40
2023/05/02 09:03:39;;;;;;;6.97;0.90;;;;;;;20.64;34.08;102462.88;16113353;19;129526;-44
2023/05/02 09:09:01;;;;;;;8.00;0.90;;;;;;;20.65;33.95;102459.00;16110854;19;129487;-43
2023/05/02 09:14:23;;;;;;;3.95;0.98;;;;;;;20.66;33.45;102469.06;16113428;19;130065;-40
2023/05/02 09:19:46;;;;;;;3.40;0.80;;;;;;;20.64;33.58;102482.34;16113502;19;130178;-41
2023/05/02 09:25:08;;;;;;;5.60;0.70;;;;;;;20.65;33.74;102490.44;16111160;19;129714;-42
2023/05/02 09:30:31;;;;;;;3.15;0.80;;;;;;;20.65;33.60;102484.88;16118128;19;129649;-43
2023/05/02 09:35:54;;;;;;;1.55;0.80;;;;;;;20.68;33.66;102489.13;16130578;19;129487;-39
2023/05/02 09:41:20;;;;;;;4.18;0.88;;;;;;;20.67;33.75;102509.69;16127209;19;130207;-41
2023/05/02 09:46:47;;;;;;;4.18;0.80;;;;;;;20.68;33.60;102505.81;16124818;19;130618;-39
2023/05/02 09:52:11;;;;;;;9.43;1.05;;;;;;;20.71;33.78;102513.72;16124561;19;133518;-41
2023/05/02 09:57:40;;;;;;;5.68;0.90;;;;;;;20.71;33.33;102509.03;16127828;19;129580;-40
2023/05/02 10:03:05;;;;;;;2.65;0.80;;;;;;;20.73;33.13;102518.00;16121938;19;131215;-39
2023/05/02 10:08:27;;;;;;;4.20;0.70;;;;;;;20.74;33.25;102510.50;16120748;19;129098;-40
2023/05/02 10:13:51;;;;;;;4.50;0.90;;;;;;;20.74;33.29;102504.94;16127298;19;129807;-40
2023/05/02 10:19:22;;;;;;;3.88;0.90;;;;;;;20.68;33.10;102501.13;16122312;19;130149;-41
2023/05/02 10:24:48;;;;;;;6.68;1.05;;;;;;;20.66;33.03;102496.88;16126152;19;129271;-40
2023/05/02 10:30:12;;;;;;;4.47;1.02;;;;;;;20.65;32.92;102511.84;16122206;19;130294;-40
2023/05/02 10:35:36;;;;;;;4.60;1.20;;;;;;;20.66;32.63;102508.00;16122391;19;130362;-39
2023/05/02 10:41:02;;;;;;;2.55;0.82;;;;;;;20.66;32.69;102519.13;16120558;19;130465;-40
2023/05/02 10:46:35;;;;;;;4.20;1.10;;;;;;;20.67;32.31;102520.81;16119145;19;132073;-39
2023/05/02 10:51:57;;;;;;;7.13;1.20;;;;;;;20.65;32.62;102509.06;16122787;19;132366;-39
2023/05/02 10:57:20;;;;;;;8.75;2.80;;;;;;;20.65;32.74;102511.84;16117100;19;129536;-40
2023/05/02 11:02:41;;;;;;;7.68;2.40;;;;;;;20.65;32.78;102514.63;16121639;19;130675;-39
2023/05/02 11:08:18;;;;;;;6.25;2.08;;;;;;;20.70;32.97;102520.34;16122236;19;130951;-39
2023/05/02 11:13:50;;;;;;;9.68;1.75;;;;;;;20.70;32.61;102523.13;16117286;19;129941;-39
2023/05/02 11:19:11;;;;;;;5.78;1.60;;;;;;;20.68;32.50;102523.38;16122482;19;130975;-38
2023/05/02 11:24:41;;;;;;;6.13;1.48;;;;;;;20.68;32.83;102519.72;16122275;19;129629;-39
2023/05/02 11:30:07;;;;;;;6.25;1.58;;;;;;;20.64;32.52;102522.09;16118961;19;129593;-39
2023/05/02 11:35:30;;;;;;;5.30;1.42;;;;;;;20.59;32.95;102520.00;16123800;19;129708;-39
2023/05/02 11:40:58;;;;;;;5.20;1.55;;;;;;;20.55;32.72;102515.97;16119816;19;130152;-39
2023/05/02 11:46:20;;;;;;;4.15;1.38;;;;;;;20.50;32.70;102517.66;16117851;19;129793;-39
2023/05/02 11:51:42;;;;;;;3.88;1.23;;;;;;;20.46;33.13;102514.47;16114485;19;129260;-40
2023/05/02 11:57:04;;;;;;;5.22;1.60;;;;;;;20.41;32.87;102522.66;16113349;19;131386;-38
2023/05/02 12:02:36;;;;;;;2.92;1.00;;;;;;;20.39;32.97;102524.78;16118096;19;130760;-39
2023/05/02 12:08:00;;;;;;;4.45;1.35;;;;;;;20.36;33.07;102525.22;16111992;19;129524;-38
2023/05/02 12:13:23;;;;;;;3.55;1.20;;;;;;;20.32;32.98;102535.94;16109148;19;129862;-39
2023/05/02 12:18:46;;;;;;;4.40;1.08;;;;;;;20.30;32.65;102549.19;16106522;19;132236;-39
2023/05/02 12:24:09;;;;;;;4.60;1.08;;;;;;;20.26;32.68;102553.47;16109855;19;130805;-39
2023/05/02 12:29:42;;;;;;;2.47;1.00;;;;;;;20.27;32.92;102550.47;16112651;19;129587;-39
2023/05/02 12:35:19;;;;;;;4.63;0.77;;;;;;;20.25;33.36;102558.19;16114120;19;129860;-39
2023/05/02 12:40:57;;;;;;;2.63;1.10;;;;;;;20.27;32.87;102558.81;16111015;19;129511;-39
2023/05/02 12:46:19;;;;;;;5.05;1.13;;;;;;;20.25;33.36;102566.50;16116814;19;129396;-40
2023/05/02 12:51:52;;;;;;;2.25;0.90;;;;;;;20.23;32.97;102565.88;16114723;19;132046;-39
2023/05/02 12:57:25;;;;;;;2.95;0.90;;;;;;;20.20;32.97;102569.09;16112257;19;130995;-39
2023/05/02 13:02:46;;;;;;;4.05;1.10;;;;;;;20.19;32.81;102563.75;16110778;19;129595;-39
2023/05/02 13:08:08;;;;;;;4.38;1.45;;;;;;;20.19;32.90;102561.81;16107442;19;130352;-39
2023/05/02 13:13:31;;;;;;;3.67;1.10;;;;;;;20.23;32.90;102581.72;16108302;19;130350;-38
2023/05/02 13:18:53;;;;;;;5.72;1.23;;;;;;;20.28;32.87;102579.97;16102503;19;130591;-37
2023/05/02 13:24:16;;;;;;;12.68;1.38;;;;;;;20.31;32.65;102583.41;16108138;19;129817;-36
2023/05/02 13:29:38;;;;;;;8.60;1.38;;;;;;;20.37;32.40;102577.81;16107913;19;129905;-36
2023/05/02 13:35:00;;;;;;;5.50;1.17;;;;;;;20.45;32.18;102579.50;16110867;19;129906;-36
2023/05/02 13:40:22;;;;;;;24.20;2.92;;;;;;;20.45;32.38;102579.50;16111321;19;131311;-37
2023/05/02 13:45:44;;;;;;;25.42;2.75;;;;;;;20.48;32.62;102579.06;16111029;19;129634;-36
2023/05/02 13:51:06;;;;;;;27.15;2.28;;;;;;;20.54;32.76;102571.78;16105720;19;131516;-38
2023/05/02 13:56:28;;;;;;;32.55;2.88;;;;;;;20.58;32.58;102562.75;16110284;19;129330;-37
2023/05/02 14:01:50;;;;;;;28.40;2.92;;;;;;;20.63;32.80;102569.59;16112560;19;130401;-37
2023/05/02 14:07:12;;;;;;;49.75;3.75;;;;;;;20.66;33.12;102564.44;16107927;19;130142;-37
2023/05/02 14:12:34;;;;;;;46.50;4.32;;;;;;;20.69;32.97;102571.50;16111886;19;134553;-37
2023/05/02 14:17:56;;;;;;;37.78;3.42;;;;;;;20.67;33.35;102565.31;16117822;19;131353;-36
2023/05/02 14:23:18;;;;;;;40.40;2.53;;;;;;;20.66;33.10;102558.88;16123007;19;129705;-36
2023/05/02 14:28:40;;;;;;;26.00;2.47;;;;;;;20.66;32.71;102546.94;16124024;19;130841;-36
2023/05/02 14:34:01;;;;;;;24.65;2.50;;;;;;;20.60;32.25;102535.59;16122939;19;130981;-37
2023/05/02 14:39:23;;;;;;;22.90;2.00;;;;;;;20.52;32.07;102563.66;16121401;19;129411;-37
2023/05/02 14:44:45;;;;;;;13.50;1.40;;;;;;;20.52;31.67;102569.22;16125187;19;132224;-40
2023/05/02 14:50:08;;;;;;;10.80;1.95;;;;;;;20.52;31.96;102563.66;16122094;19;130353;-37
2023/05/02 14:55:34;;;;;;;16.42;1.75;;;;;;;20.54;31.93;102569.00;16122035;19;131162;-37
2023/05/02 15:00:56;;;;;;;10.32;1.33;;;;;;;20.50;31.40;102568.59;16124619;19;129522;-36
2023/05/02 15:06:18;;;;;;;5.47;1.25;;;;;;;20.45;31.46;102562.81;16118861;19;129299;-37
2023/05/02 15:11:40;;;;;;;5.68;1.63;;;;;;;20.42;31.17;102568.84;16121600;19;129561;-37
2023/05/02 15:17:02;;;;;;;5.43;1.08;;;;;;;20.40;31.50;102565.41;16116191;19;130247;-37
2023/05/02 15:22:24;;;;;;;7.47;1.33;;;;;;;20.36;31.40;102567.78;16114824;19;133176;-39
2023/05/02 15:27:46;;;;;;;7.22;1.20;;;;;;;20.32;31.80;102558.16;16113330;19;129933;-37
2023/05/02 15:33:08;;;;;;;7.25;1.20;;;;;;;20.31;31.71;102567.56;16113990;19;130512;-36
2023/05/02 15:38:32;;;;;;;6.15;1.40;;;;;;;20.27;31.47;102563.50;16111423;19;129469;-37
2023/05/02 15:43:56;;;;;;;7.00;1.30;;;;;;;20.22;31.59;102564.16;16115358;19;131716;-37
2023/05/02 15:49:17;;;;;;;6.07;1.55;;;;;;;20.20;31.47;102571.03;16111172;19;130235;-37
2023/05/02 15:54:39;;;;;;;8.15;1.30;;;;;;;20.19;32.09;102563.75;16110547;19;129409;-37
2023/05/02 16:00:02;;;;;;;9.48;1.60;;;;;;;20.17;32.01;102580.66;16114590;19;131084;-39
2023/05/02 16:05:24;;;;;;;10.40;1.42;;;;;;;20.16;31.41;102580.84;16118866;19;129404;-49
2023/05/02 16:10:46;;;;;;;7.75;1.17;;;;;;;20.14;31.56;102584.69;16115438;19;129325;-49
2023/05/02 16:16:08;;;;;;;7.53;1.30;;;;;;;20.10;31.81;102580.66;16114320;19;131226;-40
2023/05/02 16:21:30;;;;;;;11.90;1.52;;;;;;;20.09;31.47;102578.06;16121506;19;130896;-48
2023/05/02 16:26:52;;;;;;;1.77;0.80;;;;;;;20.10;31.02;102572.31;16118584;19;130153;-37
2023/05/02 16:32:14;;;;;;;4.38;0.82;;;;;;;20.11;31.07;102581.50;16113108;19;130030;-40
2023/05/02 16:37:36;;;;;;;3.40;0.98;;;;;;;20.15;31.18;102574.44;16112349;19;130871;-40
2023/05/02 16:42:58;;;;;;;4.25;0.90;;;;;;;20.21;31.03;102581.91;16112187;19;129709;-39
2023/05/02 16:48:21;;;;;;;5.25;1.00;;;;;;;20.27;30.54;102577.41;16109057;19;131151;-41
2023/05/02 16:53:45;;;;;;;4.82;1.17;;;;;;;20.33;30.77;102570.13;16108407;19;129688;-42
2023/05/02 16:59:06;;;;;;;7.97;1.17;;;;;;;20.32;30.51;102569.28;16107328;19;129956;-40
2023/05/02 17:04:28;;;;;;;5.93;1.15;;;;;;;20.32;30.39;102571.19;16103842;19;130555;-40
2023/05/02 17:09:50;;;;;;;5.97;1.42;;;;;;;20.35;30.44;102573.53;16109554;19;129943;-40
2023/05/02 17:15:14;;;;;;;3.58;1.00;;;;;;;20.37;30.16;102568.63;16107410;19;129378;-40
2023/05/02 17:20:36;;;;;;;2.50;0.80;;;;;;;20.40;30.05;102576.53;16108903;19;130065;-40
2023/05/02 17:25:59;;;;;;;5.28;1.20;;;;;;;20.42;30.35;102582.72;16102990;19;129753;-40
2023/05/02 17:31:22;;;;;;;3.50;1.30;;;;;;;20.42;30.12;102580.78;16110349;19;129828;-40
2023/05/02 17:36:45;;;;;;;3.40;0.93;;;;;;;20.43;30.25;102592.78;16106036;19;130522;-40
2023/05/02 17:42:07;;;;;;;2.08;0.60;;;;;;;20.44;30.15;102594.47;16106519;19;130749;-40
2023/05/02 17:47:28;;;;;;;2.30;1.00;;;;;;;20.43;30.41;102592.78;16107768;19;129783;-41
2023/05/02 17:52:50;;;;;;;14.13;1.50;;;;;;;20.39;29.94;102591.50;16115224;19;129983;-40
2023/05/02 17:58:12;;;;;;;11.82;1.52;;;;;;;20.39;30.36;102597.91;16124966;19;129452;-40
2023/05/02 18:03:35;;;;;;;12.80;1.48;;;;;;;20.38;30.26;102600.91;16122169;19;130056;-38
2023/05/02 18:08:58;;;;;;;12.82;1.83;;;;;;;20.34;30.43;102607.97;16122456;19;129858;-41
2023/05/02 18:14:20;;;;;;;12.00;1.50;;;;;;;20.37;30.71;102604.75;16119337;19;131153;-42
2023/05/02 18:19:42;;;;;;;13.00;1.58;;;;;;;20.42;30.61;102611.38;16116251;19;131104;-42
2023/05/02 18:25:05;;;;;;;11.40;1.80;;;;;;;20.53;30.61;102614.53;16119870;19;130335;-41
2023/05/02 18:30:27;;;;;;;7.60;1.63;;;;;;;20.63;30.56;102625.22;16116490;19;129186;-40
2023/05/02 18:35:49;;;;;;;9.80;1.40;;;;;;;20.73;30.48;102626.47;16123079;19;130231;-39
2023/05/02 18:41:11;;;;;;;5.43;1.10;;;;;;;20.82;30.46;102640.16;16120547;19;131108;-39
2023/05/02 18:46:33;;;;;;;8.02;1.15;;;;;;;20.85;30.70;102637.78;16120803;19;131471;-40
2023/05/02 18:51:55;;;;;;;7.32;1.35;;;;;;;20.90;30.75;102632.44;16115395;19;130996;-40
2023/05/02 18:57:17;;;;;;;7.47;1.13;;;;;;;20.97;30.74;102631.53;16118893;19;130122;-39
2023/05/02 19:02:39;;;;;;;3.88;1.15;;;;;;;21.00;30.98;102631.94;16118409;19;130286;-40
2023/05/02 19:08:01;;;;;;;4.03;1.20;;;;;;;21.06;30.96;102644.13;16118156;19;131020;-40
2023/05/02 19:13:25;;;;;;;6.43;1.33;;;;;;;21.11;31.10;102649.88;16118645;19;129451;-45
2023/05/02 19:18:51;;;;;;;2.90;1.07;;;;;;;21.14;31.40;102649.44;16113159;19;129511;-44
2023/05/02 19:24:12;;;;;;;;;;;;;;;21.17;31.17;102665.69;16118466;19;130784;-41
2023/05/02 19:29:34;;;;;;;4.90;1.08;;;;;;;21.24;31.15;102664.81;16118869;19;130739;-45
2023/05/02 19:34:56;;;;;;;3.50;1.00;;;;;;;21.26;30.95;102669.06;16117405;19;131242;-42
2023/05/02 19:40:18;;;;;;;8.85;1.40;;;;;;;21.26;30.79;102671.84;16115269;19;131431;-40
2023/05/02 19:45:40;;;;;;;17.55;1.95;;;;;;;21.25;30.88;102678.50;16111276;19;129571;-40
2023/05/02 19:51:03;;;;;;;10.25;1.50;;;;;;;21.25;30.84;102695.19;16104821;19;130454;-40
2023/05/02 19:56:26;;;;;;;8.10;1.50;;;;;;;21.22;31.00;102690.94;16108522;19;131027;-40
2023/05/02 20:01:48;;;;;;;6.55;1.27;;;;;;;21.19;31.10;102708.06;16114435;19;130069;-41
2023/05/02 20:07:10;;;;;;;8.20;1.40;;;;;;;21.16;31.18;102699.31;16110462;19;129640;-42
2023/05/02 20:12:32;;;;;;;7.22;1.13;;;;;;;21.15;30.80;102709.59;16113779;19;130293;-40
2023/05/02 20:17:56;;;;;;;7.18;0.90;;;;;;;21.12;30.98;102707.25;16111813;19;134362;-40
2023/05/02 20:23:18;;;;;;;6.28;1.13;;;;;;;21.10;31.33;102705.78;16111944;19;130971;-40
2023/05/02 20:28:40;;;;;;;4.05;0.80;;;;;;;21.04;31.15;102721.41;16112911;19;129186;-40
2023/05/02 20:34:02;;;;;;;5.38;1.20;;;;;;;20.99;31.34;102729.56;16105572;19;130932;-44
2023/05/02 20:39:24;;;;;;;5.95;1.17;;;;;;;20.90;30.95;102727.03;16111639;19;130537;-40
2023/05/02 20:44:46;;;;;;;6.90;1.05;;;;;;;20.85;31.23;102737.94;16102005;19;129891;-41
2023/05/02 20:50:08;;;;;;;5.88;1.30;;;;;;;20.79;31.35;102738.81;16106256;19;130321;-42
2023/05/02 20:55:30;;;;;;;4.55;1.10;;;;;;;20.72;31.37;102732.38;16106545;19;130637;-40
2023/05/02 21:00:52;;;;;;;6.15;1.25;;;;;;;20.67;31.63;102734.97;16105966;19;129600;-41
2023/05/02 21:06:14;;;;;;;7.45;0.80;;;;;;;20.58;31.51;102740.72;16102180;19;134002;-41
2023/05/02 21:11:36;;;;;;;4.53;0.80;;;;;;;20.53;31.34;102746.09;16088620;19;131185;-43
2023/05/02 21:16:58;;;;;;;2.65;0.77;;;;;;;20.48;31.68;102743.09;16099116;19;132027;-40
2023/05/02 21:22:20;;;;;;;5.05;1.20;;;;;;;20.43;31.36;102742.91;16097045;19;129695;-40
2023/05/02 21:27:42;;;;;;;3.92;0.70;;;;;;;20.38;31.50;102748.22;16117705;19;129171;-41
2023/05/02 21:33:04;;;;;;;3.97;1.00;;;;;;;20.34;31.42;102749.72;16124977;19;131443;-43
2023/05/02 21:38:26;;;;;;;2.55;0.80;;;;;;;20.29;31.74;102750.38;16124967;19;129487;-43
2023/05/02 21:43:48;;;;;;;5.18;0.88;;;;;;;20.25;31.56;102744.38;16123120;19;130129;-41
2023/05/02 21:49:10;;;;;;;4.05;0.60;;;;;;;20.21;31.39;102737.53;16124159;19;129964;-40
2023/05/02 21:54:32;;;;;;;2.88;1.00;;;;;;;20.17;31.90;102733.50;16121315;19;129654;-41
2023/05/02 21:59:54;;;;;;;2.60;0.73;;;;;;;20.15;31.48;102746.72;16125982;19;129715;-43
2023/05/02 22:05:16;;;;;;;3.85;0.77;;;;;;;20.11;31.71;102748.22;16118942;19;129611;-40
2023/05/02 22:10:40;;;;;;;3.58;0.80;;;;;;;20.08;31.58;102745.84;16116920;19;129882;-42
2023/05/02 22:16:03;;;;;;;2.60;0.80;;;;;;;20.04;31.85;102736.25;16119247;19;130812;-45
2023/05/02 22:21:26;;;;;;;0.98;0.60;;;;;;;19.99;31.72;102734.94;16103051;19;129637;-40
2023/05/02 22:26:49;;;;;;;2.00;0.98;;;;;;;19.96;31.72;102729.78;16112062;19;130640;-40
2023/05/02 22:32:11;;;;;;;1.45;0.68;;;;;;;19.93;31.29;102726.56;16113145;19;130872;-40
2023/05/02 22:37:33;;;;;;;2.92;0.60;;;;;;;19.90;31.28;102735.31;16120168;19;129612;-41
2023/05/02 22:42:54;;;;;;;0.73;0.63;;;;;;;19.86;31.74;102743.22;16115704;19;130699;-41
2023/05/02 22:48:16;;;;;;;4.35;0.70;;;;;;;19.83;31.44;102750.06;16118133;19;129483;-40
2023/05/02 22:53:39;;;;;;;2.47;0.80;;;;;;;19.81;31.50;102763.31;16113856;19;132623;-40
2023/05/02 22:59:01;;;;;;;2.63;0.52;;;;;;;19.78;31.27;102762.88;16116076;19;130132;-41
2023/05/02 23:04:22;;;;;;;2.92;0.57;;;;;;;19.76;31.79;102759.44;16115157;19;131858;-40
2023/05/02 23:09:44;;;;;;;1.98;0.68;;;;;;;19.76;31.44;102751.13;16114611;19;129535;-41
2023/05/02 23:15:07;;;;;;;3.42;0.60;;;;;;;19.73;31.52;102755.19;16117590;19;131084;-42
2023/05/02 23:20:29;;;;;;;1.33;0.47;;;;;;;19.71;31.63;102751.75;16113396;19;132465;-41
2023/05/02 23:25:51;;;;;;;1.80;0.52;;;;;;;19.67;31.45;102740.22;16115483;19;129441;-41
2023/05/02 23:31:13;;;;;;;1.58;0.57;;;;;;;19.65;31.85;102744.22;16117480;19;132108;-40
2023/05/02 23:36:35;;;;;;;1.45;0.50;;;;;;;19.62;31.69;102751.06;16111655;19;132143;-40
2023/05/02 23:41:57;;;;;;;2.70;0.52;;;;;;;19.61;31.61;102738.25;16099611;19;130856;-40
2023/05/02 23:47:18;;;;;;;1.42;0.50;;;;;;;19.58;31.99;102735.88;16094780;19;129998;-40
2023/05/02 23:52:40;;;;;;;2.45;0.70;;;;;;;19.56;31.54;102740.81;16108331;19;130202;-40
2023/05/02 23:58:02;;;;;;;1.65;0.50;;;;;;;19.56;31.85;102748.28;16108882;19;131444;-40
